Time;durP1;ratioP1;P1;durP2;ratioP2;P2;SDS_P1;SDS_P2;PMS_P1;PMS_P2;Temp;Humidity;BMP_temperature;BMP_pressure;BME280_temperature;BME280_humidity;BME280_pressure;Samples;Min_cycle;Max_cycle;Signal;HPM_P1;HPM_P2
2024/03/10 00:00:24;;;;;;;46.63;44.13;;;;;;;;;;5099710;27;20035;-60
2024/03/10 00:02:50;;;;;;;47.70;45.20;;;;;;;;;;5118819;27;20027;-60
2024/03/10 00:05:15;;;;;;;47.25;44.75;;;;;;;;;;5114981;27;20035;-61
2024/03/10 00:07:46;;;;;;;46.80;44.40;;;;;;;;;;5116506;27;20042;-61
2024/03/10 00:10:14;;;;;;;45.42;43.08;;;;;;;;;;5095951;27;20042;-61
2024/03/10 00:12:41;;;;;;;43.63;41.35;;;;;;;;;;5114356;27;20122;-61
2024/03/10 00:15:08;;;;;;;45.53;43.13;;;;;;;;;;5118115;27;20043;-62
2024/03/10 00:17:35;;;;;;;48.88;46.38;;;;;;;;;;5114148;27;20462;-60
2024/03/10 00:20:02;;;;;;;45.60;43.20;;;;;;;;;;5100758;27;20123;-60
2024/03/10 00:22:27;;;;;;;45.47;43.08;;;;;;;;;;5113416;27;20342;-60
2024/03/10 00:24:52;;;;;;;44.70;42.33;;;;;;;;;;5114933;27;20100;-60
2024/03/10 00:27:18;;;;;;;45.42;43.08;;;;;;;;;;5114618;27;20039;-61
2024/03/10 00:29:44;;;;;;;46.47;44.08;;;;;;;;;;5114179;27;20480;-61
2024/03/10 00:32:09;;;;;;;44.80;42.40;;;;;;;;;;5115514;27;20035;-61
2024/03/10 00:34:35;;;;;;;39.30;37.20;;;;;;;;;;5113633;27;20063;-60
2024/03/10 00:37:02;;;;;;;41.55;39.28;;;;;;;;;;5116404;27;20066;-61
2024/03/10 00:39:27;;;;;;;37.28;35.28;;;;;;;;;;5115293;27;20027;-61
2024/03/10 00:41:53;;;;;;;37.92;35.92;;;;;;;;;;5116556;27;20138;-59
2024/03/10 00:44:18;;;;;;;40.58;38.45;;;;;;;;;;5115599;27;20035;-59
2024/03/10 00:46:43;;;;;;;39.85;36.40;;;;;;;;;;5099285;27;20106;-59
2024/03/10 00:49:09;;;;;;;38.70;36.47;;;;;;;;;;5100069;27;20036;-59
2024/03/10 00:51:35;;;;;;;37.13;35.08;;;;;;;;;;5116342;27;20042;-61
2024/03/10 00:54:01;;;;;;;36.95;35.05;;;;;;;;;;5116103;27;20027;-60
2024/03/10 00:56:26;;;;;;;35.40;33.50;;;;;;;;;;5114620;27;20027;-60
2024/03/10 00:58:52;;;;;;;36.42;34.50;;;;;;;;;;5091877;27;20064;-59
2024/03/10 01:01:17;;;;;;;31.58;29.85;;;;;;;;;;5112293;27;20042;-59
2024/03/10 01:03:43;;;;;;;34.30;32.45;;;;;;;;;;5097741;27;20523;-59
2024/03/10 01:06:09;;;;;;;32.40;30.15;;;;;;;;;;5114079;27;20458;-60
2024/03/10 01:08:34;;;;;;;30.17;28.45;;;;;;;;;;5112308;27;20031;-60
2024/03/10 01:11:00;;;;;;;27.00;25.25;;;;;;;;;;5098610;27;20602;-59
2024/03/10 01:13:27;;;;;;;28.05;26.50;;;;;;;;;;5096261;27;20168;-59
2024/03/10 01:15:54;;;;;;;28.55;26.95;;;;;;;;;;5115912;27;20397;-59
2024/03/10 01:18:22;;;;;;;27.80;26.27;;;;;;;;;;5113985;27;20023;-60
2024/03/10 01:20:48;;;;;;;25.83;24.38;;;;;;;;;;5091227;27;20086;-59
2024/03/10 01:23:13;;;;;;;25.63;24.00;;;;;;;;;;5115108;27;20043;-59
2024/03/10 01:25:39;;;;;;;26.60;25.10;;;;;;;;;;5112259;27;20172;-61
2024/03/10 01:28:07;;;;;;;25.13;23.73;;;;;;;;;;5114056;27;20110;-59
2024/03/10 01:30:34;;;;;;;25.55;24.15;;;;;;;;;;5113670;27;20149;-59
2024/03/10 01:32:59;;;;;;;21.73;20.48;;;;;;;;;;5097627;27;20039;-60
2024/03/10 01:35:25;;;;;;;23.52;22.10;;;;;;;;;;5112979;27;20035;-60
2024/03/10 01:37:52;;;;;;;22.60;21.20;;;;;;;;;;5110375;27;20057;-59
2024/03/10 01:40:18;;;;;;;22.45;21.15;;;;;;;;;;5116720;27;20042;-59
2024/03/10 01:42:43;;;;;;;22.65;21.45;;;;;;;;;;5114225;27;20035;-59
2024/03/10 01:45:09;;;;;;;22.58;21.30;;;;;;;;;;5115495;27;20046;-60
2024/03/10 01:47:34;;;;;;;25.92;24.23;;;;;;;;;;5116121;27;20129;-59
2024/03/10 01:50:02;;;;;;;26.58;25.02;;;;;;;;;;5112004;27;20111;-59
2024/03/10 01:52:27;;;;;;;27.45;25.25;;;;;;;;;;5095763;28;20409;-59
2024/03/10 01:54:55;;;;;;;28.20;26.58;;;;;;;;;;5113579;27;20103;-63
2024/03/10 01:57:20;;;;;;;28.73;27.13;;;;;;;;;;5114650;27;20579;-59
2024/03/10 01:59:48;;;;;;;28.63;27.02;;;;;;;;;;5113677;28;20129;-60
2024/03/10 02:02:13;;;;;;;24.88;23.38;;;;;;;;;;5114786;28;20035;-59
2024/03/10 02:04:39;;;;;;;27.52;26.02;;;;;;;;;;5111364;28;20465;-59
2024/03/10 02:07:05;;;;;;;28.42;26.80;;;;;;;;;;5111803;28;20397;-60
2024/03/10 02:09:33;;;;;;;32.95;31.10;;;;;;;;;;5115037;28;20047;-60
2024/03/10 02:11:59;;;;;;;27.58;26.05;;;;;;;;;;5111625;28;20074;-59
2024/03/10 02:14:25;;;;;;;28.00;26.25;;;;;;;;;;5114222;28;20078;-59
2024/03/10 02:16:50;;;;;;;31.58;29.70;;;;;;;;;;5112684;28;20708;-60
2024/03/10 02:19:18;;;;;;;29.27;27.65;;;;;;;;;;5114788;28;20038;-59
2024/03/10 02:21:44;;;;;;;26.02;24.60;;;;;;;;;;5112107;28;20038;-60
2024/03/10 02:24:19;;;;;;;25.08;23.67;;;;;;;;;;5113675;28;20039;-59
2024/03/10 02:26:47;;;;;;;25.70;24.20;;;;;;;;;;5094697;28;20054;-60
2024/03/10 02:29:18;;;;;;;25.50;24.10;;;;;;;;;;5113249;28;20062;-61
2024/03/10 02:48:13;;;;;;;24.63;23.05;;;;;;;;;;5113079;28;20074;-60
2024/03/10 02:50:39;;;;;;;26.23;24.48;;;;;;;;;;5114067;28;20430;-61
2024/03/10 02:53:04;;;;;;;25.00;23.63;;;;;;;;;;5114142;28;20031;-61
2024/03/10 02:55:32;;;;;;;24.55;23.25;;;;;;;;;;5093610;28;20045;-60
2024/03/10 02:57:58;;;;;;;26.27;24.80;;;;;;;;;;5089326;28;20042;-61
2024/03/10 03:00:23;;;;;;;24.95;23.55;;;;;;;;;;5111566;28;20432;-60
2024/03/10 03:02:49;;;;;;;24.67;23.17;;;;;;;;;;5111198;28;20040;-60
2024/03/10 03:05:17;;;;;;;26.90;25.40;;;;;;;;;;5113903;28;20033;-61
2024/03/10 03:07:43;;;;;;;26.80;24.92;;;;;;;;;;5111682;28;20040;-61
2024/03/10 03:10:10;;;;;;;25.48;23.85;;;;;;;;;;5114086;28;20084;-61
2024/03/10 03:12:36;;;;;;;24.88;23.48;;;;;;;;;;5111033;28;20036;-60
2024/03/10 03:15:01;;;;;;;25.83;24.42;;;;;;;;;;5114505;28;20039;-60
2024/03/10 03:17:26;;;;;;;26.77;25.35;;;;;;;;;;5118945;27;20031;-60
2024/03/10 03:19:52;;;;;;;26.92;25.10;;;;;;;;;;5113839;27;20400;-60
2024/03/10 03:22:17;;;;;;;25.92;24.42;;;;;;;;;;5116265;27;20035;-60
2024/03/10 03:24:43;;;;;;;25.90;24.50;;;;;;;;;;5097315;27;20035;-60
2024/03/10 03:27:08;;;;;;;25.90;24.40;;;;;;;;;;5115904;27;20023;-60
2024/03/10 03:29:33;;;;;;;25.08;23.65;;;;;;;;;;5114954;27;20118;-60
2024/03/10 03:31:59;;;;;;;28.42;26.50;;;;;;;;;;5098214;27;20342;-60
2024/03/10 03:34:24;;;;;;;26.20;24.67;;;;;;;;;;5115354;27;20040;-60
2024/03/10 03:36:49;;;;;;;26.27;24.42;;;;;;;;;;5116629;27;20046;-60
2024/03/10 03:39:15;;;;;;;25.63;24.10;;;;;;;;;;5116252;27;20038;-60
2024/03/10 03:41:40;;;;;;;25.98;24.48;;;;;;;;;;5095404;27;20146;-60
2024/03/10 03:44:07;;;;;;;28.27;26.67;;;;;;;;;;5098981;27;20095;-60
2024/03/10 03:46:33;;;;;;;27.48;25.95;;;;;;;;;;5098383;27;20127;-60
2024/03/10 03:48:58;;;;;;;25.27;23.85;;;;;;;;;;5097480;27;20031;-60
2024/03/10 03:51:23;;;;;;;25.55;24.00;;;;;;;;;;5117030;27;20061;-61
2024/03/10 03:53:49;;;;;;;24.50;23.10;;;;;;;;;;5114291;27;20460;-60
2024/03/10 03:56:15;;;;;;;25.42;24.02;;;;;;;;;;5115243;27;20492;-60
2024/03/10 03:58:41;;;;;;;25.58;24.17;;;;;;;;;;5114421;27;20058;-60
2024/03/10 04:01:06;;;;;;;25.25;23.85;;;;;;;;;;5116527;27;20062;-60
2024/03/10 04:03:32;;;;;;;27.08;25.58;;;;;;;;;;5116978;27;20213;-60
2024/03/10 04:05:57;;;;;;;25.38;23.85;;;;;;;;;;5114153;27;20046;-60
2024/03/10 04:08:23;;;;;;;25.55;24.05;;;;;;;;;;5113273;27;20061;-61
2024/03/10 04:10:48;;;;;;;26.60;25.10;;;;;;;;;;5114532;27;20029;-61
2024/03/10 04:13:13;;;;;;;27.13;25.63;;;;;;;;;;5114679;27;20031;-60
2024/03/10 04:15:39;;;;;;;26.13;24.63;;;;;;;;;;5117631;27;20065;-61
2024/03/10 04:18:05;;;;;;;24.48;23.08;;;;;;;;;;5114451;27;20027;-60
2024/03/10 04:20:34;;;;;;;26.83;25.40;;;;;;;;;;5115970;27;20060;-60
2024/03/10 04:23:05;;;;;;;26.13;24.63;;;;;;;;;;5113542;27;20036;-61
2024/03/10 04:25:34;;;;;;;26.00;24.60;;;;;;;;;;5115961;27;20031;-60
2024/03/10 04:27:59;;;;;;;24.38;22.88;;;;;;;;;;5092729;27;20027;-61
2024/03/10 04:30:26;;;;;;;26.88;25.38;;;;;;;;;;5115870;27;20446;-61
2024/03/10 04:32:51;;;;;;;25.98;24.55;;;;;;;;;;5112295;27;20126;-61
2024/03/10 04:35:19;;;;;;;26.30;24.67;;;;;;;;;;5113915;27;20114;-61
2024/03/10 04:37:45;;;;;;;25.45;24.05;;;;;;;;;;5112418;27;20031;-61
2024/03/10 04:40:10;;;;;;;27.55;26.00;;;;;;;;;;5112718;27;20039;-61
2024/03/10 04:42:38;;;;;;;26.73;25.08;;;;;;;;;;5093336;27;20468;-60
2024/03/10 04:45:04;;;;;;;30.50;28.80;;;;;;;;;;5114667;27;20135;-60
2024/03/10 04:47:30;;;;;;;25.58;24.17;;;;;;;;;;5097896;28;20062;-60
2024/03/10 04:49:55;;;;;;;27.15;25.42;;;;;;;;;;5111531;27;20051;-60
2024/03/10 04:52:21;;;;;;;27.98;26.38;;;;;;;;;;5114480;27;20027;-60
2024/03/10 04:54:47;;;;;;;26.95;25.45;;;;;;;;;;5113210;27;20369;-60
2024/03/10 04:57:12;;;;;;;26.05;24.38;;;;;;;;;;5096679;27;20039;-60
2024/03/10 04:59:37;;;;;;;27.40;25.88;;;;;;;;;;5117138;27;20118;-60
2024/03/10 05:02:03;;;;;;;28.05;26.40;;;;;;;;;;5115433;27;20059;-60
2024/03/10 05:04:28;;;;;;;25.48;24.00;;;;;;;;;;5116804;27;20163;-60
2024/03/10 05:06:53;;;;;;;26.85;25.25;;;;;;;;;;5113526;27;20056;-61
2024/03/10 05:09:19;;;;;;;26.00;24.40;;;;;;;;;;5115172;27;20035;-61
2024/03/10 05:11:44;;;;;;;25.85;24.25;;;;;;;;;;5113418;27;20035;-60
2024/03/10 05:14:09;;;;;;;25.00;23.60;;;;;;;;;;5115641;27;20057;-60
2024/03/10 05:16:35;;;;;;;27.20;25.05;;;;;;;;;;5115101;27;20551;-60
2024/03/10 05:19:00;;;;;;;26.10;24.63;;;;;;;;;;5113505;27;20105;-61
2024/03/10 05:21:26;;;;;;;26.25;24.65;;;;;;;;;;5113997;27;20042;-60
2024/03/10 05:23:53;;;;;;;26.50;25.00;;;;;;;;;;5093453;27;20024;-60
2024/03/10 05:26:19;;;;;;;27.00;25.40;;;;;;;;;;5114318;27;20579;-60
2024/03/10 05:28:45;;;;;;;26.23;24.60;;;;;;;;;;5114170;27;20100;-61
2024/03/10 05:31:32;;;;;;;25.23;23.75;;;;;;;;;;5112743;27;20027;-61
2024/03/10 05:33:59;;;;;;;26.25;24.35;;;;;;;;;;5112633;27;20035;-60
2024/03/10 05:36:28;;;;;;;27.95;26.35;;;;;;;;;;5112801;27;20457;-61
2024/03/10 05:38:53;;;;;;;28.45;26.88;;;;;;;;;;5113653;27;20860;-61
2024/03/10 05:41:19;;;;;;;25.95;24.35;;;;;;;;;;5116391;27;20118;-61
2024/03/10 05:43:45;;;;;;;28.48;26.60;;;;;;;;;;5112191;27;20100;-61
2024/03/10 05:46:12;;;;;;;27.35;25.65;;;;;;;;;;5113342;27;20649;-60
2024/03/10 05:48:38;;;;;;;26.85;25.35;;;;;;;;;;5113478;27;20038;-60
2024/03/10 05:51:04;;;;;;;25.58;24.17;;;;;;;;;;5112707;27;20116;-60
2024/03/10 05:53:30;;;;;;;25.27;23.80;;;;;;;;;;5112807;27;20624;-60
2024/03/10 05:55:56;;;;;;;25.45;23.95;;;;;;;;;;5112242;27;20386;-61
2024/03/10 05:58:21;;;;;;;27.13;25.55;;;;;;;;;;5112241;27;20043;-60
2024/03/10 06:00:49;;;;;;;27.63;25.85;;;;;;;;;;5112737;27;20039;-60
2024/03/10 06:03:15;;;;;;;25.42;24.02;;;;;;;;;;5113825;28;20365;-60
2024/03/10 06:05:41;;;;;;;25.67;24.17;;;;;;;;;;5098415;28;20027;-60
2024/03/10 06:08:10;;;;;;;26.52;25.08;;;;;;;;;;5111274;28;20115;-60
2024/03/10 06:10:37;;;;;;;26.15;24.67;;;;;;;;;;5111455;28;20049;-60
2024/03/10 06:13:03;;;;;;;27.98;26.25;;;;;;;;;;5110567;28;20035;-60
2024/03/10 06:15:29;;;;;;;27.23;25.63;;;;;;;;;;5114184;28;20035;-60
2024/03/10 06:26:05;;;;;;;26.45;24.77;;;;;;;;;;5112753;28;20039;-60
2024/03/10 06:28:30;;;;;;;25.67;24.17;;;;;;;;;;5109385;28;20035;-61
2024/03/10 06:30:58;;;;;;;27.33;25.73;;;;;;;;;;5112770;28;20059;-61
2024/03/10 06:33:24;;;;;;;26.63;24.92;;;;;;;;;;5113629;28;20054;-61
2024/03/10 06:35:49;;;;;;;28.98;27.13;;;;;;;;;;5113880;28;20449;-60
2024/03/10 06:38:16;;;;;;;25.45;23.95;;;;;;;;;;5109577;28;20411;-60
2024/03/10 06:40:42;;;;;;;26.08;24.63;;;;;;;;;;5112299;28;20376;-60
2024/03/10 06:43:08;;;;;;;28.40;26.50;;;;;;;;;;5111555;28;20047;-61
2024/03/10 06:45:33;;;;;;;26.15;24.67;;;;;;;;;;5096067;28;20039;-60
2024/03/10 06:47:59;;;;;;;27.77;26.08;;;;;;;;;;5113514;28;20469;-60
2024/03/10 06:50:24;;;;;;;26.75;25.25;;;;;;;;;;5112454;27;20064;-60
2024/03/10 06:52:50;;;;;;;28.08;26.48;;;;;;;;;;5119580;27;20039;-60
2024/03/10 06:55:15;;;;;;;29.55;27.85;;;;;;;;;;5115317;27;20087;-60
2024/03/10 06:57:40;;;;;;;27.92;26.23;;;;;;;;;;5116905;27;20100;-60
2024/03/10 07:00:08;;;;;;;29.48;27.85;;;;;;;;;;5114753;27;20039;-60
2024/03/10 07:02:34;;;;;;;28.00;26.38;;;;;;;;;;5114515;27;20046;-60
2024/03/10 07:05:02;;;;;;;27.52;25.92;;;;;;;;;;5099717;27;20521;-60
2024/03/10 07:07:29;;;;;;;27.38;25.80;;;;;;;;;;5115284;27;20050;-60
2024/03/10 07:09:55;;;;;;;29.92;28.23;;;;;;;;;;5115611;27;20042;-60
2024/03/10 07:12:22;;;;;;;29.77;28.08;;;;;;;;;;5111906;27;20028;-60
2024/03/10 07:14:48;;;;;;;26.58;24.95;;;;;;;;;;5091217;27;20098;-60
2024/03/10 07:17:14;;;;;;;29.85;28.15;;;;;;;;;;5113749;27;20027;-61
2024/03/10 07:19:41;;;;;;;27.95;26.42;;;;;;;;;;5115555;27;20031;-60
2024/03/10 07:22:08;;;;;;;30.17;28.20;;;;;;;;;;5107692;27;20043;-60
2024/03/10 07:24:34;;;;;;;29.95;28.15;;;;;;;;;;5114194;27;20030;-60
2024/03/10 07:26:59;;;;;;;29.27;27.67;;;;;;;;;;5112461;27;20039;-60
2024/03/10 07:29:24;;;;;;;33.67;31.77;;;;;;;;;;5113043;27;20035;-60
2024/03/10 07:31:49;;;;;;;31.45;29.45;;;;;;;;;;5117344;27;20039;-60
2024/03/10 07:34:15;;;;;;;29.10;27.23;;;;;;;;;;5114942;27;20035;-61
2024/03/10 07:36:40;;;;;;;31.40;29.35;;;;;;;;;;5117354;27;20088;-60
2024/03/10 07:39:06;;;;;;;31.67;29.60;;;;;;;;;;5113369;27;20031;-60
2024/03/10 07:41:32;;;;;;;31.20;29.40;;;;;;;;;;5116142;27;20066;-60
2024/03/10 07:43:58;;;;;;;31.00;29.08;;;;;;;;;;5113992;27;20510;-61
2024/03/10 07:46:25;;;;;;;31.50;29.77;;;;;;;;;;5115695;27;20615;-61
2024/03/10 07:48:51;;;;;;;31.42;29.38;;;;;;;;;;5114550;27;20114;-60
2024/03/10 07:51:16;;;;;;;32.25;30.00;;;;;;;;;;5097025;27;20109;-60
2024/03/10 07:53:42;;;;;;;31.80;30.00;;;;;;;;;;5114039;27;20019;-60
2024/03/10 07:56:08;;;;;;;29.80;28.20;;;;;;;;;;5115321;27;20440;-62
2024/03/10 07:58:33;;;;;;;32.47;30.38;;;;;;;;;;5112399;27;20049;-61
2024/03/10 08:00:59;;;;;;;32.55;30.73;;;;;;;;;;5112537;27;20031;-61
2024/03/10 08:03:24;;;;;;;32.28;30.27;;;;;;;;;;5115757;27;20063;-60
2024/03/10 08:05:49;;;;;;;32.65;30.75;;;;;;;;;;5096861;27;20045;-60
2024/03/10 08:08:15;;;;;;;32.40;30.60;;;;;;;;;;5115453;27;20077;-60
2024/03/10 08:10:41;;;;;;;31.42;29.30;;;;;;;;;;5117147;27;20441;-60
2024/03/10 08:13:07;;;;;;;36.55;34.35;;;;;;;;;;5114624;27;20092;-60
2024/03/10 08:15:33;;;;;;;34.72;32.72;;;;;;;;;;5118288;27;20104;-60
2024/03/10 08:18:01;;;;;;;33.75;31.20;;;;;;;;;;5115869;27;20034;-61
2024/03/10 08:20:27;;;;;;;32.38;30.38;;;;;;;;;;5118722;27;20027;-60
2024/03/10 08:22:52;;;;;;;34.33;29.25;;;;;;;;;;5117734;27;20476;-60
2024/03/10 08:25:18;;;;;;;32.72;30.83;;;;;;;;;;5116727;27;20024;-60
2024/03/10 08:27:45;;;;;;;34.17;32.13;;;;;;;;;;5113234;27;20027;-61
2024/03/10 08:30:11;;;;;;;28.85;27.25;;;;;;;;;;5114423;27;21164;-60
2024/03/10 08:32:37;;;;;;;33.35;31.45;;;;;;;;;;5114327;27;20054;-60
2024/03/10 08:35:09;;;;;;;33.30;31.50;;;;;;;;;;5113172;27;20039;-60
2024/03/10 08:37:38;;;;;;;32.58;30.77;;;;;;;;;;5113003;27;20039;-60
2024/03/10 08:40:09;;;;;;;31.85;30.05;;;;;;;;;;5115456;27;20039;-60
2024/03/10 08:42:41;;;;;;;31.63;29.83;;;;;;;;;;5113923;27;20373;-60
2024/03/10 08:45:10;;;;;;;31.80;29.92;;;;;;;;;;5112557;27;20040;-60
2024/03/10 08:47:42;;;;;;;33.38;31.27;;;;;;;;;;5114104;27;20035;-60
2024/03/10 08:50:09;;;;;;;32.17;30.30;;;;;;;;;;5114931;27;20109;-60
2024/03/10 08:52:36;;;;;;;31.35;29.35;;;;;;;;;;5113334;27;20538;-60
2024/03/10 08:55:04;;;;;;;33.20;31.35;;;;;;;;;;5115798;27;20038;-60
2024/03/10 08:57:30;;;;;;;28.58;26.92;;;;;;;;;;5112505;27;20056;-60
2024/03/10 08:59:56;;;;;;;28.45;26.67;;;;;;;;;;5112502;27;20234;-60
2024/03/10 09:02:23;;;;;;;28.15;26.50;;;;;;;;;;5112922;27;20044;-60
2024/03/10 09:04:49;;;;;;;30.15;28.20;;;;;;;;;;5115080;27;20058;-60
2024/03/10 09:07:14;;;;;;;30.65;28.88;;;;;;;;;;5112587;27;20516;-60
2024/03/10 09:09:39;;;;;;;29.75;28.00;;;;;;;;;;5115541;27;20043;-60
2024/03/10 09:12:06;;;;;;;28.20;26.60;;;;;;;;;;5113309;27;20023;-60
2024/03/10 09:14:31;;;;;;;29.52;27.83;;;;;;;;;;5116219;27;20077;-60
2024/03/10 09:16:57;;;;;;;29.50;27.70;;;;;;;;;;5114737;27;20055;-60
2024/03/10 09:19:22;;;;;;;29.17;27.48;;;;;;;;;;5111480;27;20057;-60
2024/03/10 09:21:49;;;;;;;32.85;30.42;;;;;;;;;;5114878;27;20031;-60
2024/03/10 09:24:14;;;;;;;36.65;34.42;;;;;;;;;;5112274;27;20031;-60
2024/03/10 09:26:41;;;;;;;38.50;36.30;;;;;;;;;;5114829;27;20368;-60
2024/03/10 09:29:06;;;;;;;42.00;39.80;;;;;;;;;;5111821;27;20174;-60
2024/03/10 09:31:32;;;;;;;33.45;31.40;;;;;;;;;;5113749;27;20069;-61
2024/03/10 09:33:59;;;;;;;38.30;36.08;;;;;;;;;;5093670;27;20035;-61
2024/03/10 09:36:25;;;;;;;47.63;44.95;;;;;;;;;;5109764;27;20429;-61
2024/03/10 09:38:52;;;;;;;42.00;39.65;;;;;;;;;;5114743;27;20031;-61
2024/03/10 09:41:18;;;;;;;49.17;46.42;;;;;;;;;;5113699;27;20039;-61
2024/03/10 09:43:51;;;;;;;47.33;44.65;;;;;;;;;;5080687;28;20078;-61
2024/03/10 09:46:17;;;;;;;50.83;48.03;;;;;;;;;;5112344;27;20098;-62
2024/03/10 09:48:43;;;;;;;44.65;42.15;;;;;;;;;;5115072;27;20471;-60
2024/03/10 09:51:13;;;;;;;50.10;47.22;;;;;;;;;;5110915;27;20148;-61
2024/03/10 09:53:40;;;;;;;42.60;40.17;;;;;;;;;;5111165;27;20114;-60
2024/03/10 09:56:07;;;;;;;45.35;42.78;;;;;;;;;;5114563;27;20502;-61
2024/03/10 09:59:11;;;;;;;49.17;46.30;;;;;;;;;;5111116;27;20059;-61
2024/03/10 10:01:36;;;;;;;50.15;47.45;;;;;;;;;;5054451;27;20054;-61
2024/03/10 10:04:03;;;;;;;56.05;53.20;;;;;;;;;;5111205;28;20380;-61
2024/03/10 10:06:32;;;;;;;60.22;57.10;;;;;;;;;;5112597;28;20631;-61
2024/03/10 10:09:07;;;;;;;63.53;60.17;;;;;;;;;;5113017;28;20031;-61
2024/03/10 10:11:32;;;;;;;70.30;65.97;;;;;;;;;;5110942;28;20032;-61
2024/03/10 10:14:15;;;;;;;69.05;65.55;;;;;;;;;;5108968;28;20035;-61
2024/03/10 10:16:55;;;;;;;62.13;58.88;;;;;;;;;;5112587;28;20062;-61
2024/03/10 10:19:29;;;;;;;45.83;43.22;;;;;;;;;;5112824;28;20100;-62
2024/03/10 10:21:55;;;;;;;51.03;48.25;;;;;;;;;;5113470;28;20039;-63
2024/03/10 10:24:21;;;;;;;48.05;45.20;;;;;;;;;;5112681;27;20031;-63
2024/03/10 10:26:57;;;;;;;41.78;39.53;;;;;;;;;;5097169;27;20040;-62
2024/03/10 10:29:23;;;;;;;39.17;37.03;;;;;;;;;;5114014;27;20618;-63
2024/03/10 10:31:55;;;;;;;39.05;36.95;;;;;;;;;;5117479;27;20027;-62
2024/03/10 10:34:20;;;;;;;41.42;38.85;;;;;;;;;;5116187;27;20027;-63
2024/03/10 10:36:46;;;;;;;35.60;33.67;;;;;;;;;;5116597;27;20087;-63
2024/03/10 10:39:16;;;;;;;40.47;38.35;;;;;;;;;;5117911;27;20085;-62
2024/03/10 10:41:41;;;;;;;37.10;34.80;;;;;;;;;;5117513;27;20050;-61
2024/03/10 10:44:07;;;;;;;32.63;30.83;;;;;;;;;;5117149;27;20031;-58
2024/03/10 10:46:36;;;;;;;32.65;30.75;;;;;;;;;;5117064;27;20031;-59
2024/03/10 10:49:05;;;;;;;35.20;33.20;;;;;;;;;;5116138;27;20027;-59
2024/03/10 10:51:34;;;;;;;35.10;33.10;;;;;;;;;;5096777;27;20039;-60
2024/03/10 10:54:07;;;;;;;31.42;29.65;;;;;;;;;;5113698;27;20035;-60
2024/03/10 10:56:33;;;;;;;30.70;28.92;;;;;;;;;;5115870;27;20134;-59
2024/03/10 10:59:00;;;;;;;30.00;28.33;;;;;;;;;;5115335;27;20114;-59
2024/03/10 11:01:25;;;;;;;27.52;26.02;;;;;;;;;;5097723;27;20118;-59
2024/03/10 11:03:54;;;;;;;26.30;24.80;;;;;;;;;;5117276;27;20408;-60
2024/03/10 11:06:19;;;;;;;25.48;23.98;;;;;;;;;;5093154;27;20110;-60
2024/03/10 11:08:46;;;;;;;24.90;23.30;;;;;;;;;;5117370;27;20126;-58
2024/03/10 11:11:14;;;;;;;27.05;25.45;;;;;;;;;;5114481;27;20035;-60
2024/03/10 11:13:40;;;;;;;25.83;24.17;;;;;;;;;;5093397;27;20376;-59
2024/03/10 11:16:06;;;;;;;25.17;23.58;;;;;;;;;;5114916;27;20036;-61
2024/03/10 11:18:36;;;;;;;24.15;22.75;;;;;;;;;;5115185;27;20038;-61
2024/03/10 11:21:05;;;;;;;24.83;23.13;;;;;;;;;;5114141;27;20035;-60
2024/03/10 11:23:39;;;;;;;25.90;24.48;;;;;;;;;;5111551;27;20046;-60
2024/03/10 11:26:15;;;;;;;25.20;23.70;;;;;;;;;;5114777;27;20043;-61
2024/03/10 11:28:58;;;;;;;24.08;22.67;;;;;;;;;;5092592;27;20098;-61
2024/03/10 11:31:23;;;;;;;25.85;24.25;;;;;;;;;;5112371;27;20031;-59
2024/03/10 11:33:58;;;;;;;27.15;25.65;;;;;;;;;;5119205;27;20057;-59
2024/03/10 11:36:25;;;;;;;24.85;23.35;;;;;;;;;;5114988;27;20102;-59
2024/03/10 11:38:51;;;;;;;25.73;24.33;;;;;;;;;;5115459;27;20049;-59
2024/03/10 11:41:18;;;;;;;24.95;23.38;;;;;;;;;;5114341;27;20031;-59
2024/03/10 11:43:47;;;;;;;25.52;24.13;;;;;;;;;;5097424;27;20035;-60
2024/03/10 11:46:20;;;;;;;29.85;28.17;;;;;;;;;;5112256;27;20109;-59
2024/03/10 11:48:52;;;;;;;28.40;26.90;;;;;;;;;;5115529;27;20088;-59
2024/03/10 11:51:29;;;;;;;30.10;28.50;;;;;;;;;;5117420;27;20035;-58
2024/03/10 11:53:59;;;;;;;29.90;28.10;;;;;;;;;;5114792;27;20031;-59
2024/03/10 11:56:25;;;;;;;29.20;27.50;;;;;;;;;;5114115;27;20027;-58
2024/03/10 11:58:52;;;;;;;30.50;28.67;;;;;;;;;;5114131;27;20050;-58
2024/03/10 12:01:18;;;;;;;33.50;31.65;;;;;;;;;;5111859;27;20089;-59
2024/03/10 12:03:49;;;;;;;31.75;30.02;;;;;;;;;;5112767;27;20059;-59
2024/03/10 12:06:15;;;;;;;31.58;29.77;;;;;;;;;;5114775;27;20123;-60
2024/03/10 12:08:43;;;;;;;30.25;28.45;;;;;;;;;;5109709;27;20526;-60
2024/03/10 12:11:12;;;;;;;30.98;29.27;;;;;;;;;;5113217;27;20106;-59
2024/03/10 12:13:41;;;;;;;31.98;30.08;;;;;;;;;;5112761;27;20054;-59
2024/03/10 12:16:07;;;;;;;31.20;29.42;;;;;;;;;;5111815;27;20132;-61
2024/03/10 12:18:35;;;;;;;30.63;28.98;;;;;;;;;;5115463;27;20031;-60
2024/03/10 12:21:03;;;;;;;36.58;34.47;;;;;;;;;;5114911;27;20043;-60
2024/03/10 12:23:33;;;;;;;31.95;30.25;;;;;;;;;;5115800;27;20042;-60
2024/03/10 12:26:04;;;;;;;32.75;30.85;;;;;;;;;;5119209;27;20023;-59
2024/03/10 12:28:30;;;;;;;34.30;32.40;;;;;;;;;;5117493;27;20093;-60
2024/03/10 12:30:59;;;;;;;38.33;35.92;;;;;;;;;;5117053;27;20043;-60
2024/03/10 12:33:24;;;;;;;39.30;37.22;;;;;;;;;;5116632;27;20035;-60
2024/03/10 12:35:51;;;;;;;38.70;36.55;;;;;;;;;;5114552;27;20096;-61
2024/03/10 12:38:17;;;;;;;34.58;32.75;;;;;;;;;;5098079;27;20108;-60
2024/03/10 12:40:42;;;;;;;49.15;46.53;;;;;;;;;;5113749;27;20481;-60
2024/03/10 12:43:08;;;;;;;46.22;43.83;;;;;;;;;;5116009;27;20102;-60
2024/03/10 12:45:33;;;;;;;43.55;41.28;;;;;;;;;;5117860;27;20163;-60
2024/03/10 12:47:59;;;;;;;56.53;53.55;;;;;;;;;;5113479;27;20043;-60
2024/03/10 12:50:24;;;;;;;59.65;56.45;;;;;;;;;;5111699;27;20669;-62
2024/03/10 12:52:50;;;;;;;54.67;51.67;;;;;;;;;;5115320;27;20476;-60
2024/03/10 12:55:15;;;;;;;57.55;54.42;;;;;;;;;;5113325;27;20035;-60
2024/03/10 12:57:41;;;;;;;60.08;57.00;;;;;;;;;;5113360;27;20557;-60
2024/03/10 13:00:27;;;;;;;57.05;54.10;;;;;;;;;;5110474;27;20415;-60
2024/03/10 13:02:55;;;;;;;57.05;54.05;;;;;;;;;;5111245;27;20027;-60
2024/03/10 13:05:20;;;;;;;51.15;48.38;;;;;;;;;;5112537;27;20027;-60
2024/03/10 13:07:46;;;;;;;51.33;48.60;;;;;;;;;;5115055;27;20035;-61
2024/03/10 13:10:12;;;;;;;45.00;42.50;;;;;;;;;;5097410;27;20051;-59
2024/03/10 13:12:38;;;;;;;55.45;52.55;;;;;;;;;;5113027;27;20027;-60
2024/03/10 13:15:05;;;;;;;57.75;54.67;;;;;;;;;;5095585;27;20118;-62
2024/03/10 13:17:31;;;;;;;58.15;55.20;;;;;;;;;;5112570;27;20495;-61
2024/03/10 13:19:56;;;;;;;58.00;54.90;;;;;;;;;;5109719;27;20394;-62
2024/03/10 13:22:22;;;;;;;57.83;54.80;;;;;;;;;;5111413;27;20036;-62
2024/03/10 13:24:49;;;;;;;59.53;56.38;;;;;;;;;;5111219;27;20047;-62
2024/03/10 13:27:14;;;;;;;59.85;56.72;;;;;;;;;;5112768;27;20212;-60
2024/03/10 13:29:40;;;;;;;59.30;56.17;;;;;;;;;;5110956;27;20032;-62
2024/03/10 13:32:05;;;;;;;56.75;53.85;;;;;;;;;;5112180;27;20031;-59
2024/03/10 13:34:31;;;;;;;57.25;54.22;;;;;;;;;;5112133;27;20495;-62
2024/03/10 13:36:57;;;;;;;52.58;49.67;;;;;;;;;;5113683;27;20039;-59
2024/03/10 13:39:26;;;;;;;56.53;53.63;;;;;;;;;;5112964;27;20107;-59
2024/03/10 13:41:52;;;;;;;56.03;53.15;;;;;;;;;;5114410;27;20058;-62
2024/03/10 13:44:17;;;;;;;53.85;50.90;;;;;;;;;;5113875;27;20067;-59
2024/03/10 13:46:42;;;;;;;53.55;50.80;;;;;;;;;;5114466;27;20114;-59
2024/03/10 13:49:08;;;;;;;57.88;54.88;;;;;;;;;;5111132;27;20031;-59
2024/03/10 13:51:35;;;;;;;55.85;52.88;;;;;;;;;;5097454;27;20635;-59
2024/03/10 13:54:01;;;;;;;49.13;46.60;;;;;;;;;;5115331;27;20111;-59
2024/03/10 13:56:26;;;;;;;50.70;47.88;;;;;;;;;;5117006;27;20035;-59
2024/03/10 13:58:52;;;;;;;55.33;52.42;;;;;;;;;;5112070;27;20645;-61
2024/03/10 14:01:18;;;;;;;58.47;55.38;;;;;;;;;;5114514;27;20452;-59
2024/03/10 14:03:44;;;;;;;55.55;52.65;;;;;;;;;;5113410;27;20032;-59
2024/03/10 14:06:09;;;;;;;48.65;46.05;;;;;;;;;;5113007;28;20043;-60
2024/03/10 14:08:35;;;;;;;50.95;48.35;;;;;;;;;;5110916;28;20042;-62
2024/03/10 14:11:00;;;;;;;45.55;43.15;;;;;;;;;;5111659;28;20546;-62
2024/03/10 14:13:26;;;;;;;48.05;45.47;;;;;;;;;;5112027;28;20459;-62
2024/03/10 14:15:51;;;;;;;49.03;46.17;;;;;;;;;;5113393;28;20085;-62
2024/03/10 14:18:16;;;;;;;45.05;42.65;;;;;;;;;;5113494;28;20080;-63
2024/03/10 14:20:44;;;;;;;54.25;51.45;;;;;;;;;;5081080;28;20065;-62
2024/03/10 14:23:09;;;;;;;51.15;48.28;;;;;;;;;;5111158;28;20049;-60
2024/03/10 14:25:36;;;;;;;39.97;37.78;;;;;;;;;;5108946;28;20426;-60
2024/03/10 14:28:02;;;;;;;39.15;37.05;;;;;;;;;;5111144;28;20057;-62
2024/03/10 14:30:29;;;;;;;44.97;42.58;;;;;;;;;;5089355;28;20039;-63
2024/03/10 14:32:55;;;;;;;37.08;35.00;;;;;;;;;;5111165;28;20158;-60
2024/03/10 14:35:21;;;;;;;37.38;34.92;;;;;;;;;;5095849;28;20504;-60
2024/03/10 14:37:49;;;;;;;35.50;33.65;;;;;;;;;;5109496;28;20417;-62